sensor_id;sensor_type;location;lat;lon;timestamp;P1;durP1;ratioP1;P2;durP2;ratioP2
8665;SDS011;4370;48.916;8.380;2023-07-31T00:00:29;3.27;;;1.90;;
8665;SDS011;4370;48.916;8.380;2023-07-31T00:02:54;2.20;;;1.80;;
8665;SDS011;4370;48.916;8.380;2023-07-31T00:05:20;2.87;;;2.10;;
8665;SDS011;4370;48.916;8.380;2023-07-31T00:07:46;6.30;;;1.90;;
8665;SDS011;4370;48.916;8.380;2023-07-31T00:10:11;4.70;;;2.27;;
8665;SDS011;4370;48.916;8.380;2023-07-31T00:12:41;3.13;;;1.83;;
8665;SDS011;4370;48.916;8.380;2023-07-31T00:15:09;2.30;;;1.90;;
8665;SDS011;4370;48.916;8.380;2023-07-31T00:17:36;4.03;;;1.90;;
8665;SDS011;4370;48.916;8.380;2023-07-31T00:20:02;2.80;;;1.80;;
8665;SDS011;4370;48.916;8.380;2023-07-31T00:22:27;3.80;;;1.97;;
8665;SDS011;4370;48.916;8.380;2023-07-31T00:24:53;2.23;;;1.97;;
8665;SDS011;4370;48.916;8.380;2023-07-31T00:27:23;3.23;;;1.90;;
8665;SDS011;4370;48.916;8.380;2023-07-31T00:29:54;2.70;;;1.93;;
8665;SDS011;4370;48.916;8.380;2023-07-31T00:32:19;3.67;;;2.43;;
8665;SDS011;4370;48.916;8.380;2023-07-31T00:34:45;3.47;;;1.90;;
8665;SDS011;4370;48.916;8.380;2023-07-31T00:37:11;4.90;;;1.93;;
8665;SDS011;4370;48.916;8.380;2023-07-31T00:39:36;3.37;;;1.90;;
8665;SDS011;4370;48.916;8.380;2023-07-31T00:42:02;4.43;;;2.10;;
8665;SDS011;4370;48.916;8.380;2023-07-31T00:44:28;2.10;;;1.83;;
8665;SDS011;4370;48.916;8.380;2023-07-31T00:46:53;3.10;;;2.13;;
8665;SDS011;4370;48.916;8.380;2023-07-31T00:49:19;2.60;;;2.03;;
8665;SDS011;4370;48.916;8.380;2023-07-31T00:51:46;3.93;;;1.97;;
8665;SDS011;4370;48.916;8.380;2023-07-31T00:54:11;3.40;;;2.10;;
8665;SDS011;4370;48.916;8.380;2023-07-31T00:56:37;3.97;;;2.03;;
8665;SDS011;4370;48.916;8.380;2023-07-31T00:59:06;3.00;;;1.93;;
8665;SDS011;4370;48.916;8.380;2023-07-31T01:01:31;3.70;;;2.10;;
8665;SDS011;4370;48.916;8.380;2023-07-31T01:03:57;2.27;;;1.83;;
8665;SDS011;4370;48.916;8.380;2023-07-31T01:06:30;2.67;;;1.93;;
8665;SDS011;4370;48.916;8.380;2023-07-31T01:09:10;2.90;;;2.03;;
8665;SDS011;4370;48.916;8.380;2023-07-31T01:11:53;3.73;;;2.17;;
8665;SDS011;4370;48.916;8.380;2023-07-31T01:14:28;2.87;;;1.70;;
8665;SDS011;4370;48.916;8.380;2023-07-31T01:16:57;4.73;;;2.10;;
8665;SDS011;4370;48.916;8.380;2023-07-31T01:19:23;3.50;;;2.07;;
8665;SDS011;4370;48.916;8.380;2023-07-31T01:22:54;3.50;;;2.10;;
8665;SDS011;4370;48.916;8.380;2023-07-31T01:27:34;3.53;;;2.00;;
8665;SDS011;4370;48.916;8.380;2023-07-31T01:30:18;4.00;;;2.10;;
8665;SDS011;4370;48.916;8.380;2023-07-31T01:32:50;2.53;;;1.90;;
8665;SDS011;4370;48.916;8.380;2023-07-31T01:35:18;3.07;;;1.83;;
8665;SDS011;4370;48.916;8.380;2023-07-31T01:37:45;3.20;;;1.87;;
8665;SDS011;4370;48.916;8.380;2023-07-31T01:40:10;4.40;;;1.93;;
8665;SDS011;4370;48.916;8.380;2023-07-31T01:42:36;3.83;;;2.13;;
8665;SDS011;4370;48.916;8.380;2023-07-31T01:45:01;4.47;;;2.23;;
8665;SDS011;4370;48.916;8.380;2023-07-31T01:47:27;3.30;;;1.80;;
8665;SDS011;4370;48.916;8.380;2023-07-31T01:49:56;2.87;;;1.90;;
8665;SDS011;4370;48.916;8.380;2023-07-31T01:52:21;5.37;;;2.30;;
8665;SDS011;4370;48.916;8.380;2023-07-31T01:54:47;4.30;;;2.17;;
8665;SDS011;4370;48.916;8.380;2023-07-31T01:57:12;2.80;;;2.00;;
8665;SDS011;4370;48.916;8.380;2023-07-31T01:59:38;5.90;;;2.30;;
8665;SDS011;4370;48.916;8.380;2023-07-31T02:02:04;3.37;;;1.80;;
8665;SDS011;4370;48.916;8.380;2023-07-31T02:04:30;3.47;;;1.97;;
8665;SDS011;4370;48.916;8.380;2023-07-31T02:06:55;4.60;;;2.20;;
8665;SDS011;4370;48.916;8.380;2023-07-31T02:09:21;3.83;;;1.97;;
8665;SDS011;4370;48.916;8.380;2023-07-31T02:11:46;5.23;;;2.17;;
8665;SDS011;4370;48.916;8.380;2023-07-31T02:14:12;4.13;;;2.00;;
8665;SDS011;4370;48.916;8.380;2023-07-31T02:16:37;4.07;;;2.03;;
8665;SDS011;4370;48.916;8.380;2023-07-31T02:19:03;6.23;;;2.20;;
8665;SDS011;4370;48.916;8.380;2023-07-31T02:21:29;4.20;;;2.33;;
8665;SDS011;4370;48.916;8.380;2023-07-31T02:23:57;4.87;;;2.00;;
8665;SDS011;4370;48.916;8.380;2023-07-31T02:26:23;3.93;;;2.30;;
8665;SDS011;4370;48.916;8.380;2023-07-31T02:28:56;4.90;;;1.90;;
8665;SDS011;4370;48.916;8.380;2023-07-31T02:31:27;2.63;;;2.00;;
8665;SDS011;4370;48.916;8.380;2023-07-31T02:33:55;3.27;;;2.13;;
8665;SDS011;4370;48.916;8.380;2023-07-31T02:36:24;3.77;;;2.10;;
8665;SDS011;4370;48.916;8.380;2023-07-31T02:38:49;3.97;;;2.13;;
8665;SDS011;4370;48.916;8.380;2023-07-31T02:41:15;3.17;;;2.10;;
8665;SDS011;4370;48.916;8.380;2023-07-31T02:43:40;3.47;;;2.10;;
8665;SDS011;4370;48.916;8.380;2023-07-31T02:46:06;3.10;;;2.10;;
8665;SDS011;4370;48.916;8.380;2023-07-31T02:48:31;3.23;;;2.20;;
8665;SDS011;4370;48.916;8.380;2023-07-31T02:50:57;2.93;;;2.00;;
8665;SDS011;4370;48.916;8.380;2023-07-31T02:53:22;3.93;;;1.87;;
8665;SDS011;4370;48.916;8.380;2023-07-31T02:55:49;3.60;;;2.20;;
8665;SDS011;4370;48.916;8.380;2023-07-31T02:58:14;3.67;;;1.90;;
8665;SDS011;4370;48.916;8.380;2023-07-31T03:00:42;4.47;;;2.20;;
8665;SDS011;4370;48.916;8.380;2023-07-31T03:03:11;2.63;;;1.90;;
8665;SDS011;4370;48.916;8.380;2023-07-31T03:05:37;3.30;;;2.20;;
8665;SDS011;4370;48.916;8.380;2023-07-31T03:08:02;3.60;;;2.33;;
8665;SDS011;4370;48.916;8.380;2023-07-31T03:10:30;4.13;;;1.90;;
8665;SDS011;4370;48.916;8.380;2023-07-31T03:12:59;3.57;;;2.00;;
8665;SDS011;4370;48.916;8.380;2023-07-31T03:15:26;4.03;;;1.80;;
8665;SDS011;4370;48.916;8.380;2023-07-31T03:17:51;2.60;;;1.90;;
8665;SDS011;4370;48.916;8.380;2023-07-31T03:20:17;2.27;;;1.80;;
8665;SDS011;4370;48.916;8.380;2023-07-31T03:22:43;2.63;;;1.83;;
8665;SDS011;4370;48.916;8.380;2023-07-31T03:25:10;2.97;;;1.90;;
8665;SDS011;4370;48.916;8.380;2023-07-31T03:27:36;2.77;;;2.10;;
8665;SDS011;4370;48.916;8.380;2023-07-31T03:30:02;4.63;;;2.00;;
8665;SDS011;4370;48.916;8.380;2023-07-31T03:32:29;2.87;;;1.80;;
8665;SDS011;4370;48.916;8.380;2023-07-31T03:34:57;3.97;;;2.30;;
8665;SDS011;4370;48.916;8.380;2023-07-31T03:37:26;3.57;;;1.80;;
8665;SDS011;4370;48.916;8.380;2023-07-31T03:39:51;3.17;;;2.00;;
8665;SDS011;4370;48.916;8.380;2023-07-31T03:42:17;2.00;;;1.70;;
8665;SDS011;4370;48.916;8.380;2023-07-31T03:44:42;3.53;;;2.10;;
8665;SDS011;4370;48.916;8.380;2023-07-31T03:47:08;3.03;;;2.20;;
8665;SDS011;4370;48.916;8.380;2023-07-31T03:49:34;4.03;;;1.90;;
8665;SDS011;4370;48.916;8.380;2023-07-31T03:52:03;2.47;;;1.90;;
8665;SDS011;4370;48.916;8.380;2023-07-31T03:54:29;4.90;;;2.20;;
8665;SDS011;4370;48.916;8.380;2023-07-31T03:56:55;3.73;;;2.20;;
8665;SDS011;4370;48.916;8.380;2023-07-31T03:59:20;2.90;;;2.00;;
8665;SDS011;4370;48.916;8.380;2023-07-31T04:01:47;2.73;;;1.73;;
8665;SDS011;4370;48.916;8.380;2023-07-31T04:04:13;1.90;;;1.70;;
8665;SDS011;4370;48.916;8.380;2023-07-31T04:06:41;3.63;;;2.40;;
8665;SDS011;4370;48.916;8.380;2023-07-31T04:09:07;3.30;;;2.00;;
8665;SDS011;4370;48.916;8.380;2023-07-31T04:11:33;2.73;;;2.00;;
8665;SDS011;4370;48.916;8.380;2023-07-31T04:13:58;2.30;;;2.10;;
8665;SDS011;4370;48.916;8.380;2023-07-31T04:16:24;3.20;;;2.13;;
8665;SDS011;4370;48.916;8.380;2023-07-31T04:18:50;3.63;;;2.27;;
8665;SDS011;4370;48.916;8.380;2023-07-31T04:21:16;5.20;;;2.10;;
8665;SDS011;4370;48.916;8.380;2023-07-31T04:23:42;4.23;;;2.30;;
8665;SDS011;4370;48.916;8.380;2023-07-31T04:26:09;5.03;;;2.37;;
8665;SDS011;4370;48.916;8.380;2023-07-31T04:28:35;2.73;;;2.00;;
8665;SDS011;4370;48.916;8.380;2023-07-31T04:31:02;4.87;;;2.47;;
8665;SDS011;4370;48.916;8.380;2023-07-31T04:33:28;3.60;;;1.80;;
8665;SDS011;4370;48.916;8.380;2023-07-31T04:35:57;3.53;;;2.23;;
8665;SDS011;4370;48.916;8.380;2023-07-31T04:38:22;3.47;;;2.03;;
8665;SDS011;4370;48.916;8.380;2023-07-31T04:40:48;3.93;;;2.40;;
8665;SDS011;4370;48.916;8.380;2023-07-31T04:43:14;3.83;;;2.07;;
8665;SDS011;4370;48.916;8.380;2023-07-31T04:45:42;2.27;;;1.93;;
8665;SDS011;4370;48.916;8.380;2023-07-31T04:48:11;4.03;;;2.40;;
8665;SDS011;4370;48.916;8.380;2023-07-31T04:50:36;2.70;;;1.87;;
8665;SDS011;4370;48.916;8.380;2023-07-31T04:53:02;2.93;;;2.20;;
8665;SDS011;4370;48.916;8.380;2023-07-31T04:55:28;3.57;;;2.00;;
8665;SDS011;4370;48.916;8.380;2023-07-31T04:57:54;4.47;;;2.23;;
8665;SDS011;4370;48.916;8.380;2023-07-31T05:00:21;2.50;;;1.97;;
8665;SDS011;4370;48.916;8.380;2023-07-31T05:02:46;3.93;;;1.90;;
8665;SDS011;4370;48.916;8.380;2023-07-31T05:05:12;5.10;;;1.83;;
8665;SDS011;4370;48.916;8.380;2023-07-31T05:07:37;5.27;;;2.23;;
8665;SDS011;4370;48.916;8.380;2023-07-31T05:10:06;3.80;;;2.10;;
8665;SDS011;4370;48.916;8.380;2023-07-31T05:12:32;4.23;;;2.00;;
8665;SDS011;4370;48.916;8.380;2023-07-31T05:14:58;2.97;;;2.10;;
8665;SDS011;4370;48.916;8.380;2023-07-31T05:17:24;3.57;;;2.20;;
8665;SDS011;4370;48.916;8.380;2023-07-31T05:19:50;2.57;;;2.00;;
8665;SDS011;4370;48.916;8.380;2023-07-31T05:22:15;5.40;;;2.23;;
8665;SDS011;4370;48.916;8.380;2023-07-31T05:24:41;5.33;;;2.10;;
8665;SDS011;4370;48.916;8.380;2023-07-31T05:27:07;5.43;;;2.50;;
8665;SDS011;4370;48.916;8.380;2023-07-31T05:29:35;4.10;;;2.13;;
8665;SDS011;4370;48.916;8.380;2023-07-31T05:32:00;3.83;;;2.20;;
8665;SDS011;4370;48.916;8.380;2023-07-31T05:34:26;8.70;;;2.03;;
8665;SDS011;4370;48.916;8.380;2023-07-31T05:36:55;4.30;;;2.10;;
8665;SDS011;4370;48.916;8.380;2023-07-31T05:39:20;4.73;;;2.10;;
8665;SDS011;4370;48.916;8.380;2023-07-31T05:41:47;3.17;;;2.47;;
8665;SDS011;4370;48.916;8.380;2023-07-31T05:44:12;5.90;;;2.10;;
8665;SDS011;4370;48.916;8.380;2023-07-31T05:46:39;3.73;;;2.10;;
8665;SDS011;4370;48.916;8.380;2023-07-31T05:49:04;3.63;;;2.20;;
8665;SDS011;4370;48.916;8.380;2023-07-31T05:51:32;4.37;;;2.00;;
8665;SDS011;4370;48.916;8.380;2023-07-31T05:53:57;2.43;;;1.97;;
8665;SDS011;4370;48.916;8.380;2023-07-31T05:56:23;5.13;;;2.27;;
8665;SDS011;4370;48.916;8.380;2023-07-31T05:58:49;4.83;;;2.57;;
8665;SDS011;4370;48.916;8.380;2023-07-31T06:01:19;3.10;;;2.00;;
8665;SDS011;4370;48.916;8.380;2023-07-31T06:03:46;3.20;;;2.43;;
8665;SDS011;4370;48.916;8.380;2023-07-31T06:06:13;5.00;;;2.30;;
8665;SDS011;4370;48.916;8.380;2023-07-31T06:08:39;3.60;;;2.30;;
8665;SDS011;4370;48.916;8.380;2023-07-31T06:11:05;4.03;;;2.03;;
8665;SDS011;4370;48.916;8.380;2023-07-31T06:13:32;2.13;;;1.90;;
8665;SDS011;4370;48.916;8.380;2023-07-31T06:15:58;2.47;;;2.27;;
8665;SDS011;4370;48.916;8.380;2023-07-31T06:18:24;3.80;;;2.40;;
8665;SDS011;4370;48.916;8.380;2023-07-31T06:20:51;3.23;;;1.90;;
8665;SDS011;4370;48.916;8.380;2023-07-31T06:23:19;3.90;;;2.30;;
8665;SDS011;4370;48.916;8.380;2023-07-31T06:25:45;4.03;;;2.37;;
8665;SDS011;4370;48.916;8.380;2023-07-31T06:28:11;4.23;;;2.20;;
8665;SDS011;4370;48.916;8.380;2023-07-31T06:30:36;5.70;;;2.33;;
8665;SDS011;4370;48.916;8.380;2023-07-31T06:33:02;4.10;;;2.37;;
8665;SDS011;4370;48.916;8.380;2023-07-31T06:35:28;6.07;;;2.17;;
8665;SDS011;4370;48.916;8.380;2023-07-31T06:37:54;6.70;;;2.23;;
8665;SDS011;4370;48.916;8.380;2023-07-31T06:40:20;4.87;;;2.23;;
8665;SDS011;4370;48.916;8.380;2023-07-31T06:42:46;3.63;;;2.03;;
8665;SDS011;4370;48.916;8.380;2023-07-31T06:45:12;4.97;;;2.50;;
8665;SDS011;4370;48.916;8.380;2023-07-31T06:47:38;3.73;;;2.40;;
8665;SDS011;4370;48.916;8.380;2023-07-31T06:50:04;4.77;;;2.20;;
8665;SDS011;4370;48.916;8.380;2023-07-31T06:52:30;6.63;;;2.50;;
8665;SDS011;4370;48.916;8.380;2023-07-31T06:57:55;3.20;;;1.90;;
8665;SDS011;4370;48.916;8.380;2023-07-31T07:00:22;5.10;;;2.53;;
8665;SDS011;4370;48.916;8.380;2023-07-31T07:02:48;5.30;;;2.20;;
8665;SDS011;4370;48.916;8.380;2023-07-31T07:05:15;4.53;;;2.17;;
8665;SDS011;4370;48.916;8.380;2023-07-31T07:07:41;2.97;;;2.07;;
8665;SDS011;4370;48.916;8.380;2023-07-31T07:10:08;5.13;;;2.17;;
8665;SDS011;4370;48.916;8.380;2023-07-31T07:12:34;5.27;;;2.40;;
8665;SDS011;4370;48.916;8.380;2023-07-31T07:15:00;4.13;;;2.13;;
8665;SDS011;4370;48.916;8.380;2023-07-31T07:17:27;4.33;;;2.20;;
8665;SDS011;4370;48.916;8.380;2023-07-31T07:19:57;4.00;;;2.40;;
8665;SDS011;4370;48.916;8.380;2023-07-31T07:22:24;5.27;;;2.40;;
8665;SDS011;4370;48.916;8.380;2023-07-31T07:24:50;6.47;;;2.67;;
8665;SDS011;4370;48.916;8.380;2023-07-31T07:27:16;3.80;;;2.10;;
8665;SDS011;4370;48.916;8.380;2023-07-31T07:29:42;3.80;;;2.10;;
8665;SDS011;4370;48.916;8.380;2023-07-31T07:32:08;4.53;;;2.30;;
8665;SDS011;4370;48.916;8.380;2023-07-31T07:34:33;3.33;;;1.97;;
8665;SDS011;4370;48.916;8.380;2023-07-31T07:36:59;7.80;;;2.53;;
8665;SDS011;4370;48.916;8.380;2023-07-31T07:39:24;4.50;;;2.13;;
8665;SDS011;4370;48.916;8.380;2023-07-31T07:41:50;4.63;;;2.23;;
8665;SDS011;4370;48.916;8.380;2023-07-31T07:44:16;4.57;;;2.50;;
8665;SDS011;4370;48.916;8.380;2023-07-31T07:46:41;4.50;;;2.30;;
8665;SDS011;4370;48.916;8.380;2023-07-31T07:49:07;3.73;;;2.10;;
8665;SDS011;4370;48.916;8.380;2023-07-31T07:51:33;4.67;;;2.43;;
8665;SDS011;4370;48.916;8.380;2023-07-31T07:53:59;4.90;;;2.40;;
8665;SDS011;4370;48.916;8.380;2023-07-31T07:56:25;5.27;;;2.63;;
8665;SDS011;4370;48.916;8.380;2023-07-31T07:58:51;4.27;;;2.30;;
8665;SDS011;4370;48.916;8.380;2023-07-31T08:01:17;6.53;;;2.43;;
8665;SDS011;4370;48.916;8.380;2023-07-31T08:03:43;4.60;;;2.23;;
8665;SDS011;4370;48.916;8.380;2023-07-31T08:06:09;5.00;;;2.43;;
8665;SDS011;4370;48.916;8.380;2023-07-31T08:08:35;5.43;;;2.80;;
8665;SDS011;4370;48.916;8.380;2023-07-31T08:11:01;5.60;;;2.30;;
8665;SDS011;4370;48.916;8.380;2023-07-31T08:13:27;5.23;;;2.73;;
8665;SDS011;4370;48.916;8.380;2023-07-31T08:15:53;6.37;;;2.67;;
8665;SDS011;4370;48.916;8.380;2023-07-31T08:18:18;4.77;;;2.30;;
8665;SDS011;4370;48.916;8.380;2023-07-31T08:20:44;3.77;;;2.10;;
8665;SDS011;4370;48.916;8.380;2023-07-31T08:23:11;5.40;;;2.30;;
8665;SDS011;4370;48.916;8.380;2023-07-31T08:25:37;5.90;;;2.40;;
8665;SDS011;4370;48.916;8.380;2023-07-31T08:28:04;6.37;;;2.60;;
8665;SDS011;4370;48.916;8.380;2023-07-31T08:30:30;5.75;;;2.50;;
8665;SDS011;4370;48.916;8.380;2023-07-31T08:32:56;4.97;;;2.50;;
8665;SDS011;4370;48.916;8.380;2023-07-31T08:35:21;7.30;;;2.60;;
8665;SDS011;4370;48.916;8.380;2023-07-31T08:37:47;5.72;;;2.38;;
8665;SDS011;4370;48.916;8.380;2023-07-31T08:40:13;7.38;;;2.50;;
8665;SDS011;4370;48.916;8.380;2023-07-31T08:42:43;6.25;;;2.58;;
8665;SDS011;4370;48.916;8.380;2023-07-31T08:45:21;3.38;;;2.25;;
8665;SDS011;4370;48.916;8.380;2023-07-31T08:47:49;5.35;;;2.15;;
8665;SDS011;4370;48.916;8.380;2023-07-31T08:50:16;4.50;;;2.50;;
8665;SDS011;4370;48.916;8.380;2023-07-31T08:52:43;4.68;;;2.40;;
8665;SDS011;4370;48.916;8.380;2023-07-31T08:55:11;2.92;;;2.15;;
8665;SDS011;4370;48.916;8.380;2023-07-31T08:57:37;5.53;;;2.53;;
8665;SDS011;4370;48.916;8.380;2023-07-31T09:00:07;6.90;;;2.38;;
8665;SDS011;4370;48.916;8.380;2023-07-31T09:05:28;3.53;;;2.00;;
8665;SDS011;4370;48.916;8.380;2023-07-31T09:07:55;5.00;;;2.45;;
8665;SDS011;4370;48.916;8.380;2023-07-31T09:10:22;4.50;;;2.78;;
8665;SDS011;4370;48.916;8.380;2023-07-31T09:12:50;6.40;;;2.50;;
8665;SDS011;4370;48.916;8.380;2023-07-31T09:15:17;3.55;;;2.35;;
8665;SDS011;4370;48.916;8.380;2023-07-31T09:17:43;6.47;;;2.67;;
8665;SDS011;4370;48.916;8.380;2023-07-31T09:20:15;4.82;;;2.30;;
8665;SDS011;4370;48.916;8.380;2023-07-31T09:22:41;5.22;;;2.25;;
8665;SDS011;4370;48.916;8.380;2023-07-31T09:25:22;3.42;;;2.15;;
8665;SDS011;4370;48.916;8.380;2023-07-31T09:30:50;6.35;;;2.40;;
8665;SDS011;4370;48.916;8.380;2023-07-31T09:33:16;5.78;;;2.25;;
8665;SDS011;4370;48.916;8.380;2023-07-31T09:35:43;3.75;;;2.13;;
8665;SDS011;4370;48.916;8.380;2023-07-31T09:38:12;3.42;;;2.13;;
8665;SDS011;4370;48.916;8.380;2023-07-31T09:40:40;8.07;;;2.75;;
8665;SDS011;4370;48.916;8.380;2023-07-31T09:43:07;4.60;;;2.50;;
8665;SDS011;4370;48.916;8.380;2023-07-31T09:45:46;7.18;;;2.45;;
8665;SDS011;4370;48.916;8.380;2023-07-31T09:48:16;5.07;;;2.45;;
8665;SDS011;4370;48.916;8.380;2023-07-31T09:50:45;6.00;;;2.15;;
8665;SDS011;4370;48.916;8.380;2023-07-31T09:53:12;7.18;;;2.58;;
8665;SDS011;4370;48.916;8.380;2023-07-31T09:55:39;5.18;;;2.72;;
8665;SDS011;4370;48.916;8.380;2023-07-31T09:58:06;4.28;;;2.40;;
8665;SDS011;4370;48.916;8.380;2023-07-31T10:00:33;4.45;;;2.70;;
8665;SDS011;4370;48.916;8.380;2023-07-31T10:03:04;4.97;;;2.60;;
8665;SDS011;4370;48.916;8.380;2023-07-31T10:05:35;5.25;;;2.45;;
8665;SDS011;4370;48.916;8.380;2023-07-31T10:08:03;5.28;;;2.53;;
8665;SDS011;4370;48.916;8.380;2023-07-31T10:10:30;6.03;;;2.63;;
8665;SDS011;4370;48.916;8.380;2023-07-31T10:12:57;3.40;;;2.30;;
8665;SDS011;4370;48.916;8.380;2023-07-31T10:15:24;5.90;;;2.83;;
8665;SDS011;4370;48.916;8.380;2023-07-31T10:17:52;6.15;;;2.50;;
8665;SDS011;4370;48.916;8.380;2023-07-31T10:20:20;6.72;;;2.80;;
8665;SDS011;4370;48.916;8.380;2023-07-31T10:22:46;4.93;;;2.40;;
8665;SDS011;4370;48.916;8.380;2023-07-31T10:25:14;5.72;;;2.55;;
8665;SDS011;4370;48.916;8.380;2023-07-31T10:27:41;5.43;;;2.65;;
8665;SDS011;4370;48.916;8.380;2023-07-31T10:30:17;5.88;;;2.60;;
8665;SDS011;4370;48.916;8.380;2023-07-31T10:32:45;6.75;;;2.88;;
8665;SDS011;4370;48.916;8.380;2023-07-31T10:35:14;6.85;;;2.70;;
8665;SDS011;4370;48.916;8.380;2023-07-31T10:37:41;6.15;;;2.78;;
8665;SDS011;4370;48.916;8.380;2023-07-31T10:40:11;5.78;;;3.00;;
8665;SDS011;4370;48.916;8.380;2023-07-31T10:42:51;6.13;;;2.50;;
8665;SDS011;4370;48.916;8.380;2023-07-31T10:45:27;4.13;;;2.47;;
8665;SDS011;4370;48.916;8.380;2023-07-31T10:48:06;4.15;;;2.45;;
8665;SDS011;4370;48.916;8.380;2023-07-31T10:50:37;4.65;;;2.22;;
8665;SDS011;4370;48.916;8.380;2023-07-31T10:53:04;7.57;;;2.65;;
8665;SDS011;4370;48.916;8.380;2023-07-31T10:55:33;4.82;;;2.80;;
8665;SDS011;4370;48.916;8.380;2023-07-31T10:58:10;6.22;;;2.67;;
8665;SDS011;4370;48.916;8.380;2023-07-31T11:00:43;5.78;;;2.63;;
8665;SDS011;4370;48.916;8.380;2023-07-31T11:08:47;4.78;;;2.47;;
8665;SDS011;4370;48.916;8.380;2023-07-31T11:11:19;7.50;;;3.13;;
8665;SDS011;4370;48.916;8.380;2023-07-31T11:16:15;5.45;;;2.65;;
8665;SDS011;4370;48.916;8.380;2023-07-31T11:18:45;5.15;;;2.88;;
8665;SDS011;4370;48.916;8.380;2023-07-31T11:21:13;4.68;;;2.80;;
8665;SDS011;4370;48.916;8.380;2023-07-31T11:23:41;4.70;;;2.30;;
8665;SDS011;4370;48.916;8.380;2023-07-31T11:26:12;4.85;;;2.72;;
8665;SDS011;4370;48.916;8.380;2023-07-31T11:28:38;7.00;;;2.85;;
8665;SDS011;4370;48.916;8.380;2023-07-31T11:31:03;6.05;;;2.63;;
8665;SDS011;4370;48.916;8.380;2023-07-31T11:33:30;5.38;;;2.58;;
8665;SDS011;4370;48.916;8.380;2023-07-31T11:35:55;8.93;;;3.20;;
8665;SDS011;4370;48.916;8.380;2023-07-31T11:38:25;4.82;;;2.72;;
8665;SDS011;4370;48.916;8.380;2023-07-31T11:40:52;3.95;;;2.38;;
8665;SDS011;4370;48.916;8.380;2023-07-31T11:43:19;4.95;;;2.60;;
8665;SDS011;4370;48.916;8.380;2023-07-31T11:45:49;4.65;;;2.60;;
8665;SDS011;4370;48.916;8.380;2023-07-31T11:48:40;5.32;;;2.47;;
8665;SDS011;4370;48.916;8.380;2023-07-31T11:51:06;6.60;;;2.92;;
8665;SDS011;4370;48.916;8.380;2023-07-31T11:53:49;4.18;;;2.63;;
8665;SDS011;4370;48.916;8.380;2023-07-31T11:56:17;5.40;;;2.55;;
8665;SDS011;4370;48.916;8.380;2023-07-31T11:58:45;4.28;;;2.65;;
8665;SDS011;4370;48.916;8.380;2023-07-31T12:01:13;6.57;;;2.88;;
8665;SDS011;4370;48.916;8.380;2023-07-31T12:03:40;4.82;;;2.42;;
8665;SDS011;4370;48.916;8.380;2023-07-31T12:06:07;6.05;;;2.53;;
8665;SDS011;4370;48.916;8.380;2023-07-31T12:08:33;5.97;;;2.47;;
8665;SDS011;4370;48.916;8.380;2023-07-31T12:11:07;4.57;;;2.55;;
8665;SDS011;4370;48.916;8.380;2023-07-31T12:13:36;4.63;;;2.55;;
8665;SDS011;4370;48.916;8.380;2023-07-31T12:16:02;4.30;;;2.58;;
8665;SDS011;4370;48.916;8.380;2023-07-31T12:18:32;5.80;;;2.78;;
8665;SDS011;4370;48.916;8.380;2023-07-31T12:21:01;5.10;;;2.60;;
8665;SDS011;4370;48.916;8.380;2023-07-31T12:23:30;5.40;;;2.58;;
8665;SDS011;4370;48.916;8.380;2023-07-31T12:26:04;6.85;;;2.42;;
8665;SDS011;4370;48.916;8.380;2023-07-31T12:28:36;7.88;;;3.03;;
8665;SDS011;4370;48.916;8.380;2023-07-31T12:31:03;4.97;;;2.45;;
8665;SDS011;4370;48.916;8.380;2023-07-31T12:33:33;5.32;;;2.45;;
8665;SDS011;4370;48.916;8.380;2023-07-31T12:36:01;4.97;;;2.58;;
8665;SDS011;4370;48.916;8.380;2023-07-31T12:38:29;5.28;;;2.40;;
8665;SDS011;4370;48.916;8.380;2023-07-31T12:40:55;4.90;;;2.58;;
8665;SDS011;4370;48.916;8.380;2023-07-31T12:43:21;5.45;;;2.40;;
8665;SDS011;4370;48.916;8.380;2023-07-31T12:45:47;4.72;;;2.60;;
8665;SDS011;4370;48.916;8.380;2023-07-31T12:48:22;6.18;;;2.70;;
8665;SDS011;4370;48.916;8.380;2023-07-31T12:50:47;3.65;;;2.58;;
8665;SDS011;4370;48.916;8.380;2023-07-31T12:53:14;5.45;;;2.70;;
8665;SDS011;4370;48.916;8.380;2023-07-31T12:55:40;6.22;;;2.60;;
8665;SDS011;4370;48.916;8.380;2023-07-31T12:58:05;5.55;;;2.40;;
8665;SDS011;4370;48.916;8.380;2023-07-31T13:00:31;4.80;;;2.53;;
8665;SDS011;4370;48.916;8.380;2023-07-31T13:02:57;5.32;;;2.67;;
8665;SDS011;4370;48.916;8.380;2023-07-31T13:05:22;7.15;;;2.80;;
8665;SDS011;4370;48.916;8.380;2023-07-31T13:07:48;3.90;;;2.38;;
8665;SDS011;4370;48.916;8.380;2023-07-31T13:10:14;4.63;;;2.45;;
8665;SDS011;4370;48.916;8.380;2023-07-31T13:12:40;6.38;;;2.85;;
8665;SDS011;4370;48.916;8.380;2023-07-31T13:15:06;6.30;;;2.53;;
8665;SDS011;4370;48.916;8.380;2023-07-31T13:17:32;5.85;;;2.50;;
8665;SDS011;4370;48.916;8.380;2023-07-31T13:19:58;5.55;;;2.35;;
8665;SDS011;4370;48.916;8.380;2023-07-31T13:22:23;5.57;;;2.50;;
8665;SDS011;4370;48.916;8.380;2023-07-31T13:24:49;4.40;;;2.53;;
8665;SDS011;4370;48.916;8.380;2023-07-31T13:27:15;5.25;;;2.55;;
8665;SDS011;4370;48.916;8.380;2023-07-31T13:29:46;5.70;;;2.63;;
8665;SDS011;4370;48.916;8.380;2023-07-31T13:32:16;4.47;;;2.67;;
8665;SDS011;4370;48.916;8.380;2023-07-31T13:34:42;4.07;;;2.50;;
8665;SDS011;4370;48.916;8.380;2023-07-31T13:37:08;5.60;;;2.50;;
8665;SDS011;4370;48.916;8.380;2023-07-31T13:39:34;5.47;;;2.60;;
8665;SDS011;4370;48.916;8.380;2023-07-31T13:42:00;4.85;;;2.47;;
8665;SDS011;4370;48.916;8.380;2023-07-31T13:44:28;8.55;;;2.45;;
8665;SDS011;4370;48.916;8.380;2023-07-31T13:46:54;4.88;;;2.70;;
8665;SDS011;4370;48.916;8.380;2023-07-31T13:49:19;5.15;;;2.70;;
8665;SDS011;4370;48.916;8.380;2023-07-31T13:51:45;5.53;;;2.60;;
8665;SDS011;4370;48.916;8.380;2023-07-31T13:54:11;5.63;;;2.65;;
8665;SDS011;4370;48.916;8.380;2023-07-31T13:56:37;8.43;;;2.58;;
8665;SDS011;4370;48.916;8.380;2023-07-31T13:59:03;6.20;;;2.85;;
8665;SDS011;4370;48.916;8.380;2023-07-31T14:01:29;5.38;;;2.70;;
8665;SDS011;4370;48.916;8.380;2023-07-31T14:03:56;4.32;;;2.40;;
8665;SDS011;4370;48.916;8.380;2023-07-31T14:06:21;6.47;;;2.55;;
8665;SDS011;4370;48.916;8.380;2023-07-31T14:08:47;4.93;;;2.78;;
8665;SDS011;4370;48.916;8.380;2023-07-31T14:11:12;3.45;;;2.10;;
8665;SDS011;4370;48.916;8.380;2023-07-31T14:13:38;4.35;;;2.50;;
8665;SDS011;4370;48.916;8.380;2023-07-31T14:16:03;4.20;;;2.42;;
8665;SDS011;4370;48.916;8.380;2023-07-31T14:18:29;4.80;;;2.40;;
8665;SDS011;4370;48.916;8.380;2023-07-31T14:20:54;4.50;;;2.45;;
8665;SDS011;4370;48.916;8.380;2023-07-31T14:23:20;3.13;;;2.53;;
8665;SDS011;4370;48.916;8.380;2023-07-31T14:25:46;4.25;;;2.28;;
8665;SDS011;4370;48.916;8.380;2023-07-31T14:28:12;3.13;;;2.20;;
8665;SDS011;4370;48.916;8.380;2023-07-31T14:30:38;6.03;;;2.30;;
8665;SDS011;4370;48.916;8.380;2023-07-31T14:33:04;6.50;;;2.50;;
8665;SDS011;4370;48.916;8.380;2023-07-31T14:35:30;5.25;;;2.63;;
8665;SDS011;4370;48.916;8.380;2023-07-31T14:37:58;4.55;;;2.35;;
8665;SDS011;4370;48.916;8.380;2023-07-31T14:40:24;4.68;;;2.67;;
8665;SDS011;4370;48.916;8.380;2023-07-31T14:42:50;3.47;;;2.15;;
8665;SDS011;4370;48.916;8.380;2023-07-31T14:45:16;5.20;;;2.70;;
8665;SDS011;4370;48.916;8.380;2023-07-31T14:47:41;4.50;;;2.63;;
8665;SDS011;4370;48.916;8.380;2023-07-31T14:50:08;4.63;;;2.53;;
8665;SDS011;4370;48.916;8.380;2023-07-31T14:52:35;5.90;;;2.30;;
8665;SDS011;4370;48.916;8.380;2023-07-31T14:55:00;6.35;;;2.58;;
8665;SDS011;4370;48.916;8.380;2023-07-31T14:57:26;8.02;;;2.88;;
8665;SDS011;4370;48.916;8.380;2023-07-31T14:59:52;5.68;;;2.70;;
8665;SDS011;4370;48.916;8.380;2023-07-31T15:02:17;4.45;;;2.47;;
8665;SDS011;4370;48.916;8.380;2023-07-31T15:04:43;5.07;;;2.58;;
8665;SDS011;4370;48.916;8.380;2023-07-31T15:07:08;5.10;;;2.80;;
8665;SDS011;4370;48.916;8.380;2023-07-31T15:09:34;4.10;;;2.42;;
8665;SDS011;4370;48.916;8.380;2023-07-31T15:11:59;6.70;;;2.50;;
8665;SDS011;4370;48.916;8.380;2023-07-31T15:14:25;7.25;;;3.00;;
8665;SDS011;4370;48.916;8.380;2023-07-31T15:16:52;4.78;;;2.80;;
8665;SDS011;4370;48.916;8.380;2023-07-31T15:19:18;4.00;;;2.50;;
8665;SDS011;4370;48.916;8.380;2023-07-31T15:21:43;5.43;;;2.95;;
8665;SDS011;4370;48.916;8.380;2023-07-31T15:24:10;4.25;;;2.47;;
8665;SDS011;4370;48.916;8.380;2023-07-31T15:26:36;4.30;;;2.60;;
8665;SDS011;4370;48.916;8.380;2023-07-31T15:29:03;4.93;;;2.72;;
8665;SDS011;4370;48.916;8.380;2023-07-31T15:31:34;3.58;;;2.67;;
8665;SDS011;4370;48.916;8.380;2023-07-31T15:34:00;2.97;;;2.28;;